Time;durP1;ratioP1;P1;durP2;ratioP2;P2;SDS_P1;SDS_P2;PMS_P1;PMS_P2;Temp;Humidity;BMP_temperature;BMP_pressure;BME280_temperature;BME280_humidity;BME280_pressure;Samples;Min_cycle;Max_cycle;Signal;HPM_P1;HPM_P2
2023/06/30 00:02:23;;;;;;;22.02;15.52;;;;;;;21.43;100.00;98544.72;5091092;28;20020;-43
2023/06/30 00:04:49;;;;;;;29.70;16.58;;;;;;;21.43;100.00;98539.41;5092355;28;20020;-44
2023/06/30 00:07:14;;;;;;;28.55;16.55;;;;;;;21.39;100.00;98537.50;5091736;28;20524;-44
2023/06/30 00:09:40;;;;;;;21.02;13.23;;;;;;;21.51;100.00;98536.16;5090973;28;20039;-44
2023/06/30 00:12:06;;;;;;;23.10;14.38;;;;;;;21.65;100.00;98535.50;5090896;28;20093;-44
2023/06/30 00:14:32;;;;;;;28.25;13.43;;;;;;;21.58;100.00;98525.16;5090924;28;20436;-44
2023/06/30 00:16:57;;;;;;;25.40;14.50;;;;;;;21.48;100.00;98515.31;5090859;28;20023;-44
2023/06/30 00:19:24;;;;;;;18.55;14.40;;;;;;;21.38;100.00;98510.00;5090815;28;20024;-44
2023/06/30 00:21:52;;;;;;;24.02;13.93;;;;;;;21.27;100.00;98513.78;5090824;28;20020;-44
2023/06/30 00:24:19;;;;;;;22.13;14.15;;;;;;;21.22;100.00;98514.63;5092016;28;20481;-44
2023/06/30 00:26:44;;;;;;;20.38;14.23;;;;;;;21.10;100.00;98509.59;5092001;28;20027;-44
2023/06/30 00:29:10;;;;;;;20.40;13.45;;;;;;;21.02;100.00;98496.81;5090698;28;20032;-44
2023/06/30 00:31:36;;;;;;;25.23;14.45;;;;;;;21.09;100.00;98491.22;5090476;28;20040;-44
2023/06/30 00:34:02;;;;;;;28.85;14.38;;;;;;;21.41;100.00;98498.78;5091927;28;20016;-44
2023/06/30 00:36:29;;;;;;;20.38;14.57;;;;;;;21.73;100.00;98490.34;5090523;28;20032;-44
2023/06/30 00:38:55;;;;;;;22.75;13.75;;;;;;;21.88;100.00;98504.66;5091825;28;20099;-44
2023/06/30 00:41:21;;;;;;;18.48;13.02;;;;;;;21.84;100.00;98493.72;5092143;28;20028;-44
2023/06/30 00:43:47;;;;;;;21.98;14.68;;;;;;;21.83;100.00;98492.13;5091865;28;20462;-45
2023/06/30 00:46:15;;;;;;;25.98;14.32;;;;;;;21.73;100.00;98497.53;5090470;28;20120;-45
2023/06/30 00:48:41;;;;;;;25.73;13.80;;;;;;;21.65;100.00;98500.78;5090516;28;20141;-45
2023/06/30 00:51:08;;;;;;;19.77;13.55;;;;;;;21.63;100.00;98490.41;5092077;28;20085;-45
2023/06/30 00:53:34;;;;;;;24.55;14.43;;;;;;;21.62;100.00;98496.81;5090466;28;20024;-45
2023/06/30 00:55:59;;;;;;;23.13;14.25;;;;;;;21.62;100.00;98488.81;5091632;28;20070;-45
2023/06/30 00:58:25;;;;;;;17.60;12.88;;;;;;;21.62;100.00;98482.66;5091744;28;20016;-45
2023/06/30 01:00:55;;;;;;;22.08;13.98;;;;;;;21.61;100.00;98487.22;5090343;28;20078;-44
2023/06/30 01:03:38;;;;;;;18.05;13.25;;;;;;;21.61;100.00;98483.72;5091654;28;20028;-45
2023/06/30 01:06:17;;;;;;;19.88;13.75;;;;;;;21.68;100.00;98479.69;5090387;28;20510;-44
2023/06/30 01:08:54;;;;;;;23.42;13.75;;;;;;;21.82;100.00;98476.38;5091741;28;20024;-44
2023/06/30 01:11:20;;;;;;;29.63;14.82;;;;;;;21.91;100.00;98472.03;5091625;28;20028;-44
2023/06/30 01:13:47;;;;;;;22.40;13.90;;;;;;;21.98;100.00;98469.03;5090305;28;20402;-45
2023/06/30 01:16:15;;;;;;;21.15;13.48;;;;;;;22.10;100.00;98467.59;5091484;28;20027;-44
2023/06/30 01:18:44;;;;;;;21.55;13.70;;;;;;;22.25;100.00;98458.66;5091802;28;20024;-45
2023/06/30 01:21:12;;;;;;;28.83;13.18;;;;;;;22.43;100.00;98464.38;5094845;28;20055;-45
2023/06/30 01:23:45;;;;;;;30.80;13.02;;;;;;;22.44;100.00;98458.75;5095666;28;20535;-44
2023/06/30 01:26:11;;;;;;;22.85;14.48;;;;;;;22.50;100.00;98448.78;5095460;28;20028;-45
2023/06/30 01:28:38;;;;;;;27.50;14.90;;;;;;;22.65;100.00;98447.81;5095320;28;20027;-45
2023/06/30 01:31:09;;;;;;;19.13;14.15;;;;;;;22.94;100.00;98435.16;5094987;28;20048;-45
2023/06/30 01:33:38;;;;;;;26.83;14.05;;;;;;;23.21;100.00;98427.59;5095237;28;20035;-45
2023/06/30 01:36:05;;;;;;;25.40;15.00;;;;;;;23.53;100.00;98432.22;5093794;28;20509;-45
2023/06/30 01:38:31;;;;;;;26.15;14.88;;;;;;;23.52;100.00;98434.09;5095128;28;20040;-45
2023/06/30 01:40:58;;;;;;;20.50;14.13;;;;;;;23.33;100.00;98431.41;5093796;28;20527;-45
2023/06/30 01:43:24;;;;;;;27.27;14.60;;;;;;;;;;5095064;28;20098;-45
2023/06/30 01:45:50;;;;;;;20.30;14.45;;;;;;;23.15;100.00;98439.47;5095005;28;20036;-45
2023/06/30 01:48:16;;;;;;;17.90;14.05;;;;;;;23.00;100.00;98438.56;5095255;28;20023;-45
2023/06/30 01:50:45;;;;;;;24.90;15.25;;;;;;;22.70;100.00;98437.84;5093675;28;20020;-45
2023/06/30 01:53:10;;;;;;;27.13;14.55;;;;;;;22.46;100.00;98440.53;5093615;28;20071;-45
2023/06/30 01:55:36;;;;;;;25.02;14.57;;;;;;;22.65;100.00;98455.84;5093482;28;20494;-45
2023/06/30 01:58:03;;;;;;;28.35;16.08;;;;;;;22.87;100.00;98455.31;5093430;28;20493;-45
2023/06/30 02:00:28;;;;;;;22.40;16.48;;;;;;;22.80;100.00;98469.03;5094657;28;20064;-44
2023/06/30 02:02:54;;;;;;;24.02;16.27;;;;;;;22.72;100.00;98472.34;5094938;28;20052;-45
2023/06/30 02:05:19;;;;;;;23.00;15.93;;;;;;;22.56;100.00;98477.06;5093332;28;20483;-45
2023/06/30 02:07:45;;;;;;;25.45;15.25;;;;;;;22.62;100.00;98477.81;5094649;28;20013;-45
2023/06/30 02:10:12;;;;;;;24.65;13.27;;;;;;;22.78;100.00;98476.56;5093198;28;20105;-45
2023/06/30 02:12:38;;;;;;;27.80;13.93;;;;;;;23.05;100.00;98480.53;5094424;28;20058;-44
2023/06/30 02:15:04;;;;;;;18.80;13.63;;;;;;;23.09;100.00;98477.00;5093047;28;20056;-45
2023/06/30 02:17:32;;;;;;;23.60;13.50;;;;;;;23.21;100.00;98470.44;5094382;28;20029;-45
2023/06/30 02:19:58;;;;;;;19.33;14.00;;;;;;;23.33;100.00;98479.63;5094304;28;20032;-45
2023/06/30 02:22:24;;;;;;;32.40;15.25;;;;;;;23.21;100.00;98476.56;5092987;28;20020;-45
2023/06/30 02:24:50;;;;;;;23.05;13.63;;;;;;;23.39;100.00;98475.00;5092963;28;20028;-44
2023/06/30 02:27:18;;;;;;;22.95;13.90;;;;;;;23.47;100.00;98478.91;5092870;28;20020;-45
2023/06/30 02:29:44;;;;;;;24.38;14.13;;;;;;;23.27;100.00;98471.97;5092796;28;20028;-45
2023/06/30 02:32:10;;;;;;;23.27;15.90;;;;;;;23.03;100.00;98472.00;5093459;28;20036;-44
2023/06/30 02:34:35;;;;;;;37.33;29.02;;;;;;;22.97;100.00;98473.13;5092762;28;20489;-44
2023/06/30 02:37:01;;;;;;;22.20;15.70;;;;;;;22.59;100.00;98471.13;5093934;28;20107;-43
2023/06/30 02:39:27;;;;;;;24.02;15.55;;;;;;;22.11;100.00;98461.19;5092731;28;20133;-43
2023/06/30 02:41:53;;;;;;;21.63;14.52;;;;;;;21.71;100.00;98463.09;5092567;28;20035;-43
2023/06/30 02:44:18;;;;;;;27.48;15.80;;;;;;;21.44;100.00;98460.88;5093952;28;20378;-43
2023/06/30 02:46:44;;;;;;;26.98;17.05;;;;;;;21.38;100.00;98469.16;5092498;28;20028;-43
2023/06/30 02:49:10;;;;;;;32.20;17.05;;;;;;;21.25;100.00;98459.88;5093775;28;20048;-44
2023/06/30 02:51:35;;;;;;;36.47;19.02;;;;;;;21.07;100.00;98461.34;5092767;28;20055;-44
2023/06/30 02:54:01;;;;;;;40.63;19.30;;;;;;;20.94;100.00;98458.16;5093954;28;20438;-44
2023/06/30 02:56:27;;;;;;;39.28;21.33;;;;;;;20.83;100.00;98453.97;5093542;28;20103;-44
2023/06/30 02:58:52;;;;;;;36.03;20.15;;;;;;;20.64;100.00;98460.97;5093616;28;20517;-44
2023/06/30 03:01:21;;;;;;;28.88;20.50;;;;;;;20.31;100.00;98455.94;5093565;28;20048;-44
2023/06/30 03:03:47;;;;;;;31.45;20.50;;;;;;;20.54;100.00;98454.56;5093482;28;20127;-43
2023/06/30 03:06:13;;;;;;;35.55;25.48;;;;;;;20.83;100.00;98450.50;5092119;28;20020;-44
2023/06/30 03:08:39;;;;;;;35.17;20.00;;;;;;;20.95;100.00;98451.78;5093421;28;20034;-44
2023/06/30 03:11:04;;;;;;;33.35;22.90;;;;;;;21.01;100.00;98447.22;5093347;28;20548;-44
2023/06/30 03:13:30;;;;;;;33.05;22.17;;;;;;;21.04;100.00;98445.88;5092042;28;20457;-44
2023/06/30 03:15:56;;;;;;;31.70;21.25;;;;;;;21.06;100.00;98438.38;5093240;28;20359;-44
2023/06/30 03:18:21;;;;;;;37.72;23.70;;;;;;;21.14;100.00;98443.94;5093256;28;20028;-43
2023/06/30 03:20:48;;;;;;;45.17;24.33;;;;;;;21.31;100.00;98430.25;5091820;28;20114;-44
2023/06/30 03:23:14;;;;;;;33.83;23.55;;;;;;;21.35;100.00;98431.28;5093172;28;20052;-44
2023/06/30 03:25:40;;;;;;;36.15;22.20;;;;;;;21.46;100.00;98434.69;5093252;28;20024;-44
2023/06/30 03:28:05;;;;;;;35.88;21.70;;;;;;;21.25;100.00;98431.34;5093019;28;20493;-44
2023/06/30 03:30:31;;;;;;;35.33;19.70;;;;;;;20.98;100.00;98441.63;5093421;28;20030;-45
2023/06/30 03:32:56;;;;;;;36.97;20.40;;;;;;;20.66;100.00;98446.28;5092981;28;20032;-45
2023/06/30 03:35:22;;;;;;;33.33;21.25;;;;;;;20.43;100.00;98462.88;5091501;28;20020;-44
2023/06/30 03:37:49;;;;;;;33.97;17.90;;;;;;;20.19;100.00;98457.31;5091569;28;20047;-44
2023/06/30 03:40:15;;;;;;;27.52;16.67;;;;;;;20.02;100.00;98458.41;5092853;28;20087;-43
2023/06/30 03:42:41;;;;;;;24.55;15.13;;;;;;;19.78;100.00;98465.31;5092140;28;20028;-44
2023/06/30 03:45:07;;;;;;;29.35;15.23;;;;;;;19.58;100.00;98469.53;5092771;28;20027;-44
2023/06/30 03:47:33;;;;;;;22.05;14.50;;;;;;;19.55;100.00;98470.03;5091362;28;20030;-44
2023/06/30 03:49:58;;;;;;;30.83;15.05;;;;;;;19.51;100.00;98467.09;5091417;28;20028;-44
2023/06/30 03:52:24;;;;;;;38.10;15.85;;;;;;;19.49;100.00;98468.44;5092729;28;20048;-44
2023/06/30 03:54:50;;;;;;;25.00;13.35;;;;;;;19.51;100.00;98458.34;5092624;28;20028;-44
2023/06/30 03:57:16;;;;;;;25.52;14.48;;;;;;;19.48;100.00;98459.66;5092551;28;20520;-44
2023/06/30 03:59:41;;;;;;;23.58;14.93;;;;;;;19.45;100.00;98462.06;5092552;28;20056;-44
2023/06/30 04:02:07;;;;;;;38.13;15.70;;;;;;;19.40;100.00;98454.03;5091118;28;20024;-45
2023/06/30 04:04:33;;;;;;;27.38;13.30;;;;;;;19.26;100.00;98453.78;5092411;28;20027;-44
2023/06/30 04:06:58;;;;;;;21.30;11.68;;;;;;;18.95;100.00;98462.47;5091050;28;20067;-43
2023/06/30 04:09:24;;;;;;;31.90;14.43;;;;;;;18.83;100.00;98463.72;5091003;28;20485;-44
2023/06/30 04:11:50;;;;;;;23.52;13.27;;;;;;;18.80;100.00;98465.06;5092322;28;20028;-44
2023/06/30 04:14:16;;;;;;;34.00;14.02;;;;;;;18.83;100.00;98464.50;5092304;28;20069;-44
2023/06/30 04:16:41;;;;;;;24.80;13.07;;;;;;;18.90;100.00;98465.09;5092088;28;20028;-44
2023/06/30 04:19:07;;;;;;;31.95;14.65;;;;;;;18.89;100.00;98466.13;5090885;28;20082;-44
2023/06/30 04:21:33;;;;;;;25.15;13.55;;;;;;;18.88;100.00;98475.19;5092075;28;20031;-44
2023/06/30 04:23:58;;;;;;;24.13;12.70;;;;;;;18.84;100.00;98479.44;5092143;28;20054;-44
2023/06/30 04:26:24;;;;;;;26.60;12.13;;;;;;;18.89;100.00;98482.09;5092128;28;20074;-44
2023/06/30 04:28:50;;;;;;;29.08;13.20;;;;;;;18.89;100.00;98489.28;5090702;28;20020;-44
2023/06/30 04:31:15;;;;;;;25.75;13.32;;;;;;;18.72;100.00;98495.56;5091789;28;20440;-45
2023/06/30 04:33:41;;;;;;;30.85;14.45;;;;;;;18.69;100.00;98503.22;5090701;28;20039;-45
2023/06/30 04:36:07;;;;;;;37.03;13.68;;;;;;;18.68;100.00;98505.09;5090547;28;20135;-45
2023/06/30 04:38:35;;;;;;;36.92;14.45;;;;;;;18.65;100.00;98515.44;5090626;28;20434;-45
2023/06/30 04:41:01;;;;;;;27.23;14.85;;;;;;;18.52;100.00;98508.72;5090568;28;20028;-44
2023/06/30 04:43:27;;;;;;;27.20;15.57;;;;;;;18.49;100.00;98510.06;5091876;28;20027;-45
2023/06/30 04:45:53;;;;;;;23.02;12.18;;;;;;;18.36;100.00;98513.13;5090509;28;20115;-43
2023/06/30 04:48:18;;;;;;;36.08;13.18;;;;;;;18.20;100.00;98520.19;5090539;28;20024;-44
2023/06/30 04:50:44;;;;;;;29.63;11.88;;;;;;;18.04;100.00;98523.78;5090430;28;20051;-43
2023/06/30 04:53:10;;;;;;;43.97;13.50;;;;;;;17.88;100.00;98522.84;5090679;28;20024;-44
2023/06/30 04:55:35;;;;;;;21.00;12.30;;;;;;;17.91;100.00;98514.38;5094607;28;20035;-44
2023/06/30 04:58:01;;;;;;;37.60;12.63;;;;;;;17.92;100.00;98523.94;5095986;28;20570;-43
2023/06/30 05:00:27;;;;;;;26.55;11.65;;;;;;;17.88;100.00;98518.34;5094582;28;20112;-44
2023/06/30 05:02:53;;;;;;;23.10;11.00;;;;;;;17.82;100.00;98513.22;5096061;28;20481;-43
2023/06/30 05:05:19;;;;;;;31.60;13.02;;;;;;;17.73;100.00;98518.97;5095785;28;20050;-43
2023/06/30 05:07:46;;;;;;;37.97;13.65;;;;;;;17.72;100.00;98520.00;5095754;28;20552;-43
2023/06/30 05:10:12;;;;;;;38.40;12.73;;;;;;;17.76;100.00;98521.09;5095942;28;20028;-43
2023/06/30 05:12:38;;;;;;;21.52;11.80;;;;;;;17.82;100.00;98519.31;5094332;28;20516;-43
2023/06/30 05:15:04;;;;;;;33.72;12.65;;;;;;;17.80;100.00;98516.09;5094231;28;20028;-44
2023/06/30 05:17:29;;;;;;;34.67;13.48;;;;;;;17.81;100.00;98516.91;5094227;28;20035;-44
2023/06/30 05:19:55;;;;;;;23.75;10.90;;;;;;;17.85;100.00;98518.03;5095542;28;20103;-43
2023/06/30 05:22:20;;;;;;;29.00;12.57;;;;;;;17.83;100.00;98526.25;5094149;28;20501;-44
2023/06/30 05:24:47;;;;;;;27.10;11.20;;;;;;;17.74;100.00;98528.53;5095482;28;20056;-44
2023/06/30 05:27:14;;;;;;;25.27;11.75;;;;;;;17.68;100.00;98532.19;5095412;28;20115;-44
2023/06/30 05:29:39;;;;;;;18.10;10.88;;;;;;;17.68;100.00;98536.69;5095566;28;20035;-43
2023/06/30 05:32:06;;;;;;;21.30;11.13;;;;;;;17.64;100.00;98535.59;5095112;28;20052;-44
2023/06/30 05:34:31;;;;;;;20.67;10.90;;;;;;;17.67;100.00;98533.25;5095261;28;20024;-44
2023/06/30 05:36:57;;;;;;;31.70;11.48;;;;;;;17.60;100.00;98540.59;5095120;28;20081;-43
2023/06/30 05:39:23;;;;;;;24.83;11.48;;;;;;;17.76;100.00;98545.00;5093891;28;20016;-43
2023/06/30 05:41:48;;;;;;;26.65;11.23;;;;;;;17.95;100.00;98542.84;5093723;28;20028;-43
2023/06/30 05:44:14;;;;;;;37.38;12.20;;;;;;;18.13;100.00;98536.34;5095137;28;20012;-44
2023/06/30 05:46:40;;;;;;;16.05;8.98;;;;;;;18.39;100.00;98543.72;5093913;28;20040;-44
2023/06/30 05:49:06;;;;;;;22.27;11.13;;;;;;;18.36;100.00;98542.38;5094962;28;20016;-44
2023/06/30 05:51:35;;;;;;;24.38;11.38;;;;;;;18.28;100.00;98540.19;5093669;28;20024;-44
2023/06/30 05:54:02;;;;;;;31.88;11.82;;;;;;;18.30;100.00;98540.72;5094948;28;20020;-44
2023/06/30 05:56:29;;;;;;;25.05;11.00;;;;;;;18.39;100.00;98547.19;5093425;28;20035;-45
2023/06/30 05:58:54;;;;;;;34.28;11.82;;;;;;;18.46;100.00;98541.66;5093467;28;20073;-44
2023/06/30 06:01:20;;;;;;;36.08;12.32;;;;;;;18.47;100.00;98548.53;5093395;28;20027;-44
2023/06/30 06:03:47;;;;;;;19.67;11.02;;;;;;;18.51;100.00;98549.63;5093387;28;20024;-44
2023/06/30 06:06:12;;;;;;;32.28;11.85;;;;;;;18.61;100.00;98543.59;5092314;28;20024;-44
2023/06/30 06:08:39;;;;;;;36.80;16.42;;;;;;;18.54;100.00;98535.84;5093265;28;20016;-44
2023/06/30 06:11:05;;;;;;;17.50;10.02;;;;;;;18.65;100.00;98542.03;5094475;28;20028;-44
2023/06/30 06:13:35;;;;;;;16.55;8.88;;;;;;;18.72;100.00;98547.94;5094481;28;20016;-45
2023/06/30 06:16:03;;;;;;;31.23;12.35;;;;;;;18.77;100.00;98545.28;5093082;28;20028;-44
2023/06/30 06:18:29;;;;;;;37.78;11.95;;;;;;;18.85;100.00;98544.81;5093096;28;20085;-44
2023/06/30 06:20:55;;;;;;;25.80;11.07;;;;;;;18.89;100.00;98548.56;5093028;28;20494;-44
2023/06/30 06:23:21;;;;;;;28.35;11.43;;;;;;;18.87;100.00;98545.38;5094321;28;20509;-44
2023/06/30 06:25:48;;;;;;;27.90;11.15;;;;;;;18.81;100.00;98540.28;5094230;28;20111;-44
2023/06/30 06:28:13;;;;;;;32.03;12.38;;;;;;;18.96;100.00;98545.69;5076065;28;20081;-44
2023/06/30 06:30:39;;;;;;;24.27;11.10;;;;;;;18.98;100.00;98546.25;5092589;28;20496;-44
2023/06/30 06:33:04;;;;;;;34.40;11.75;;;;;;;19.02;100.00;98554.50;5092899;28;20089;-44
2023/06/30 06:35:30;;;;;;;26.33;11.30;;;;;;;18.96;100.00;98551.03;5075836;28;20512;-44
2023/06/30 06:37:56;;;;;;;21.95;11.80;;;;;;;18.86;100.00;98550.97;5094136;28;20393;-44
2023/06/30 06:40:21;;;;;;;39.60;13.13;;;;;;;18.95;100.00;98552.06;5093959;28;20028;-44
2023/06/30 06:42:47;;;;;;;40.38;13.55;;;;;;;18.99;100.00;98552.34;5092660;28;20012;-44
2023/06/30 06:45:13;;;;;;;30.15;11.73;;;;;;;19.00;100.00;98554.75;5093881;28;20024;-44
2023/06/30 06:48:16;;;;;;;22.88;11.75;;;;;;;19.00;100.00;98552.09;5093792;28;20111;-44
2023/06/30 06:50:42;;;;;;;28.48;11.70;;;;;;;19.06;100.00;98555.59;5092458;28;20110;-44
2023/06/30 06:53:08;;;;;;;39.20;12.18;;;;;;;19.06;100.00;98568.88;5093678;28;20016;-44
2023/06/30 06:55:34;;;;;;;19.88;11.75;;;;;;;19.04;100.00;98560.38;5092268;28;20510;-44
2023/06/30 06:57:59;;;;;;;26.35;11.90;;;;;;;18.95;100.00;98560.88;5092349;28;20024;-44
2023/06/30 07:00:25;;;;;;;29.63;12.23;;;;;;;19.10;100.00;98554.81;5092196;28;20115;-43
2023/06/30 07:02:52;;;;;;;31.48;11.70;;;;;;;19.12;100.00;98562.53;5092541;28;20024;-44
2023/06/30 07:05:17;;;;;;;42.00;12.32;;;;;;;19.14;100.00;98561.22;5092186;28;20043;-44
2023/06/30 07:07:43;;;;;;;31.45;11.30;;;;;;;19.30;100.00;98571.94;5092113;28;20024;-44
2023/06/30 07:10:09;;;;;;;39.60;12.80;;;;;;;19.36;100.00;98574.34;5092080;28;20036;-44
2023/06/30 07:12:35;;;;;;;19.00;11.05;;;;;;;19.41;100.00;98570.09;5092050;28;20119;-44
2023/06/30 07:15:00;;;;;;;26.77;11.43;;;;;;;19.37;100.00;98577.78;5093322;28;20142;-44
2023/06/30 07:17:26;;;;;;;22.85;10.40;;;;;;;19.33;100.00;98574.84;5091832;28;20519;-43
2023/06/30 07:19:52;;;;;;;33.15;11.25;;;;;;;19.42;100.00;98577.81;5093258;28;20086;-43
2023/06/30 07:22:17;;;;;;;19.92;10.80;;;;;;;19.50;100.00;98573.88;5093209;28;20023;-44
2023/06/30 07:24:43;;;;;;;20.77;10.40;;;;;;;19.50;100.00;98581.84;5091886;28;20028;-44
2023/06/30 07:27:09;;;;;;;31.65;10.80;;;;;;;19.53;100.00;98587.44;5091690;28;20557;-43
2023/06/30 07:29:35;;;;;;;19.48;9.70;;;;;;;19.59;100.00;98590.91;5093034;28;20027;-43
2023/06/30 07:32:01;;;;;;;17.67;9.50;;;;;;;19.50;100.00;98595.16;5091383;28;20390;-44
2023/06/30 07:34:29;;;;;;;20.13;9.93;;;;;;;19.48;100.00;98605.28;5091632;28;20039;-43
2023/06/30 07:36:55;;;;;;;25.60;10.90;;;;;;;19.41;100.00;98610.00;5092799;28;20099;-43
2023/06/30 07:39:20;;;;;;;21.58;9.50;;;;;;;19.34;100.00;98611.06;5092872;28;20043;-43
2023/06/30 07:41:46;;;;;;;20.30;9.50;;;;;;;19.45;100.00;98617.22;5093091;28;20028;-43
2023/06/30 07:44:12;;;;;;;16.10;9.70;;;;;;;19.52;100.00;98624.97;5092792;28;20016;-43
2023/06/30 07:46:38;;;;;;;22.70;10.25;;;;;;;19.42;100.00;98625.72;5091431;28;20532;-43
2023/06/30 07:49:04;;;;;;;22.55;9.82;;;;;;;19.41;100.00;98633.97;5091690;28;20026;-43
2023/06/30 07:51:30;;;;;;;22.33;9.48;;;;;;;19.52;100.00;98631.09;5091276;28;20036;-43
2023/06/30 07:53:56;;;;;;;16.77;8.88;;;;;;;19.62;100.00;98633.00;5091319;28;20472;-43
2023/06/30 07:56:23;;;;;;;21.95;10.50;;;;;;;19.61;100.00;98638.59;5092707;28;20099;-43
2023/06/30 07:58:48;;;;;;;26.50;16.35;;;;;;;19.67;100.00;98637.53;5091198;28;20055;-43
2023/06/30 08:01:14;;;;;;;13.48;8.95;;;;;;;19.67;100.00;98642.88;5091141;28;20067;-43
2023/06/30 08:03:40;;;;;;;21.40;10.32;;;;;;;19.54;100.00;98641.50;5091117;28;20023;-43
2023/06/30 08:06:05;;;;;;;14.65;9.30;;;;;;;19.22;100.00;98653.03;5091047;28;20032;-43
2023/06/30 08:08:32;;;;;;;26.98;11.38;;;;;;;19.05;100.00;98647.06;5091051;28;20024;-43
2023/06/30 08:10:58;;;;;;;25.85;9.98;;;;;;;19.13;100.00;98654.56;5092251;28;20046;-43
2023/06/30 08:13:25;;;;;;;31.00;11.57;;;;;;;19.45;100.00;98651.03;5090955;28;20027;-43
2023/06/30 08:15:51;;;;;;;28.10;11.55;;;;;;;19.68;100.00;98655.91;5092172;28;20115;-43
2023/06/30 08:18:17;;;;;;;16.60;10.35;;;;;;;19.73;100.00;98661.28;5092168;28;20047;-42
2023/06/30 08:20:43;;;;;;;35.28;11.95;;;;;;;19.82;100.00;98656.28;5092152;28;20024;-43
2023/06/30 08:23:12;;;;;;;26.55;11.05;;;;;;;20.00;100.00;98662.16;5090811;28;20489;-43
2023/06/30 08:25:37;;;;;;;31.67;12.13;;;;;;;20.24;100.00;98662.47;5092022;28;20119;-43
2023/06/30 08:28:03;;;;;;;25.30;12.45;;;;;;;20.40;100.00;98666.75;5090340;28;20561;-43
2023/06/30 08:30:30;;;;;;;20.42;12.68;;;;;;;20.43;100.00;98671.59;5090586;28;20082;-44
2023/06/30 08:33:02;;;;;;;30.30;11.40;;;;;;;20.54;100.00;98657.22;5091669;28;20055;-43
2023/06/30 08:35:30;;;;;;;26.98;13.98;;;;;;;20.90;100.00;98654.53;5091948;28;20028;-44
2023/06/30 08:38:00;;;;;;;21.63;12.13;;;;;;;21.12;100.00;98650.78;5090527;28;20440;-44
2023/06/30 08:40:31;;;;;;;25.30;12.10;;;;;;;21.21;100.00;98651.00;5090500;28;20025;-44
2023/06/30 08:43:09;;;;;;;26.60;13.77;;;;;;;21.19;100.00;98647.81;5090627;28;20028;-44
2023/06/30 08:45:37;;;;;;;23.92;14.52;;;;;;;21.35;100.00;98655.53;5073902;28;20056;-44
2023/06/30 08:48:07;;;;;;;33.67;14.57;;;;;;;21.43;100.00;98661.38;5090529;28;20085;-44
2023/06/30 08:50:35;;;;;;;25.10;15.00;;;;;;;21.39;100.00;98654.97;5090497;28;20024;-44
2023/06/30 08:53:03;;;;;;;24.88;14.40;;;;;;;21.56;100.00;98660.03;5091869;28;20028;-45
2023/06/30 08:55:29;;;;;;;23.75;14.13;;;;;;;21.53;100.00;98658.69;5090412;28;20016;-44
2023/06/30 08:57:56;;;;;;;22.17;14.77;;;;;;;21.64;100.00;98656.78;5107510;28;20020;-45
2023/06/30 09:00:23;;;;;;;29.45;15.45;;;;;;;21.87;100.00;98660.69;5091761;28;20024;-45
2023/06/30 09:02:50;;;;;;;28.77;15.90;;;;;;;22.08;100.00;98653.38;5091726;28;20092;-45
2023/06/30 09:05:15;;;;;;;26.63;15.38;;;;;;;22.30;100.00;98658.34;5090365;28;20016;-45
2023/06/30 09:08:03;;;;;;;23.95;15.82;;;;;;;22.35;100.00;98655.63;5090385;28;20043;-45
2023/06/30 09:10:37;;;;;;;32.00;17.85;;;;;;;22.30;100.00;98659.13;5090396;28;20084;-45
2023/06/30 09:13:03;;;;;;;22.17;16.10;;;;;;;22.23;100.00;98657.81;5091698;28;20035;-45
2023/06/30 09:15:30;;;;;;;24.98;15.60;;;;;;;22.08;100.00;98661.38;5090240;28;20032;-45
2023/06/30 09:17:56;;;;;;;24.17;15.27;;;;;;;22.13;100.00;98659.50;5090288;28;20115;-45
2023/06/30 09:20:22;;;;;;;30.73;15.65;;;;;;;22.25;100.00;98667.16;5091547;28;20468;-44
2023/06/30 09:22:47;;;;;;;26.98;15.57;;;;;;;22.37;100.00;98672.19;5090259;28;20073;-45
2023/06/30 09:25:25;;;;;;;33.60;16.40;;;;;;;22.86;100.00;98663.25;5090179;28;20504;-45
2023/06/30 09:27:52;;;;;;;24.60;16.10;;;;;;;23.29;100.00;98663.38;5091489;28;20024;-45
2023/06/30 09:30:18;;;;;;;30.50;15.98;;;;;;;23.32;100.00;98672.72;5091500;28;20028;-45
2023/06/30 09:32:43;;;;;;;25.77;16.77;;;;;;;23.22;100.00;98673.66;5091231;28;20565;-45
2023/06/30 09:35:13;;;;;;;25.20;15.88;;;;;;;23.03;100.00;98662.84;5089984;28;20516;-45
2023/06/30 09:37:43;;;;;;;30.20;15.10;;;;;;;23.06;100.00;98669.50;5090095;28;20074;-45
2023/06/30 09:40:14;;;;;;;25.50;14.82;;;;;;;23.34;100.00;98667.88;5090082;28;20160;-45
2023/06/30 09:42:44;;;;;;;24.65;13.05;;;;;;;23.50;100.00;98668.50;5093824;28;20518;-45
2023/06/30 09:45:13;;;;;;;37.03;20.00;;;;;;;23.49;100.00;98667.72;5093741;28;20476;-45
2023/06/30 09:47:39;;;;;;;24.50;16.02;;;;;;;23.50;100.00;98672.00;5094029;28;20063;-45
2023/06/30 09:50:05;;;;;;;32.15;18.05;;;;;;;23.43;100.00;98670.75;5093792;28;20035;-45
2023/06/30 09:52:33;;;;;;;21.80;12.05;;;;;;;23.26;100.00;98672.00;5094904;28;20067;-44
2023/06/30 09:55:08;;;;;;;31.83;13.95;;;;;;;22.82;100.00;98670.25;5094951;28;20147;-45
2023/06/30 09:57:37;;;;;;;17.55;11.95;;;;;;;22.79;100.00;98680.69;5093544;28;20036;-45
2023/06/30 10:00:04;;;;;;;20.42;12.55;;;;;;;22.64;100.00;98685.09;5094775;28;20103;-45
2023/06/30 10:02:31;;;;;;;27.58;15.32;;;;;;;22.36;100.00;98673.28;5094663;28;20036;-45
2023/06/30 10:04:56;;;;;;;20.75;13.38;;;;;;;21.94;100.00;98693.25;5094728;28;20393;-45
2023/06/30 10:07:23;;;;;;;24.17;14.48;;;;;;;21.51;100.00;98684.84;5093301;28;20473;-43
2023/06/30 10:09:50;;;;;;;28.50;16.10;;;;;;;21.18;100.00;98686.25;5094859;28;20450;-43
2023/06/30 10:12:18;;;;;;;17.52;13.68;;;;;;;20.99;100.00;98691.34;5094579;28;20020;-43
2023/06/30 10:14:47;;;;;;;28.02;14.15;;;;;;;20.69;100.00;98698.31;5094787;28;20433;-44
2023/06/30 10:17:14;;;;;;;17.33;14.88;;;;;;;20.45;100.00;98695.31;5094404;28;20093;-44
2023/06/30 10:19:41;;;;;;;25.60;16.23;;;;;;;20.30;100.00;98688.91;5093090;28;20062;-43
2023/06/30 10:22:07;;;;;;;27.88;15.85;;;;;;;20.16;100.00;98698.44;5094320;28;20028;-43
2023/06/30 10:24:37;;;;;;;18.90;14.38;;;;;;;19.88;100.00;98694.34;5094355;28;20393;-44
2023/06/30 10:27:07;;;;;;;22.27;15.65;;;;;;;19.88;100.00;98697.84;5094198;28;20473;-44
2023/06/30 10:29:34;;;;;;;36.20;18.38;;;;;;;20.26;100.00;98693.16;5093215;28;20432;-43
2023/06/30 10:32:00;;;;;;;26.73;17.02;;;;;;;20.63;100.00;98702.03;5093961;28;20744;-43
2023/06/30 10:34:27;;;;;;;24.35;15.68;;;;;;;20.91;100.00;98698.84;5094176;28;20077;-44
2023/06/30 10:36:53;;;;;;;25.05;14.73;;;;;;;21.13;100.00;98695.88;5094045;28;20028;-43
2023/06/30 10:39:19;;;;;;;35.42;16.17;;;;;;;21.19;100.00;98696.69;5094051;28;20700;-43
2023/06/30 10:41:49;;;;;;;27.42;15.55;;;;;;;21.14;100.00;98696.66;5093983;28;20058;-43
2023/06/30 10:44:15;;;;;;;22.65;14.95;;;;;;;21.19;100.00;98710.03;5093957;28;20024;-43
2023/06/30 10:46:41;;;;;;;23.20;15.35;;;;;;;21.05;100.00;98695.63;5093859;28;20028;-43
2023/06/30 10:49:07;;;;;;;22.45;15.02;;;;;;;21.05;100.00;98698.31;5093780;28;20549;-43
2023/06/30 10:51:36;;;;;;;20.02;13.63;;;;;;;21.14;100.00;98696.66;5092182;28;20023;-43
2023/06/30 10:54:02;;;;;;;20.33;13.95;;;;;;;21.16;100.00;98699.88;5092618;28;20078;-43
2023/06/30 10:56:29;;;;;;;20.92;14.07;;;;;;;21.15;100.00;98706.28;5093974;28;20024;-43
2023/06/30 10:59:03;;;;;;;25.13;14.85;;;;;;;21.15;100.00;98706.28;5093955;28;20101;-43
2023/06/30 11:01:28;;;;;;;22.85;14.10;;;;;;;21.17;100.00;98709.50;5093657;28;20058;-43
2023/06/30 11:03:57;;;;;;;20.48;13.07;;;;;;;21.30;100.00;98708.13;5092271;28;20024;-44
2023/06/30 11:06:23;;;;;;;23.75;13.68;;;;;;;21.44;100.00;98705.72;5093472;28;20028;-43
2023/06/30 11:09:09;;;;;;;19.10;13.85;;;;;;;21.32;100.00;98706.78;5093529;28;20028;-44